Terminal Aerodrome Forecast
Issued by NWS Cleveland, OH

Home | Current Version | Previous Version | Text Only | Print | Product List | Glossary On
Versions: 1 2 3 4 5 6 7 8 9 10 11 12 13 14 15 16 17 18
000
FTUS41 KCLE 170543
TAFMFD
TAF
KMFD 170543Z 1706/1806 24006KT P6SM SCT015
      TEMPO 1706/1707 BKN015
     FM170700 24006KT P6SM OVC015
     FM171700 24010KT P6SM BKN025
     FM172200 23010KT P6SM SCT030 BKN150=

USA.gov is the U.S. government's official web portal to all federal, state and local government web resources and services.